Time;durP1;ratioP1;P1;durP2;ratioP2;P2;SDS_P1;SDS_P2;PMS_P1;PMS_P2;Temp;Humidity;BMP_temperature;BMP_pressure;BME280_temperature;BME280_humidity;BME280_pressure;Samples;Min_cycle;Max_cycle;Signal;HPM_P1;HPM_P2
2022/10/13 00:00:57;;;;;;;25.50;17.37;;;11.60;99.90;;;11.69;73.53;95717.44;5025433;28;20565;-58
2022/10/13 00:03:25;;;;;;;25.77;16.07;;;11.60;99.90;;;11.68;73.79;95723.69;5025163;28;20477;-56
2022/10/13 00:05:53;;;;;;;26.70;17.47;;;11.60;99.90;;;11.66;73.99;95718.53;5025185;28;21019;-53
2022/10/13 00:08:21;;;;;;;30.23;17.30;;;11.60;99.90;;;11.66;73.94;95713.28;5021438;28;20460;-56
2022/10/13 00:10:50;;;;;;;29.63;18.13;;;11.60;99.90;;;11.64;73.96;95712.53;5025453;28;20522;-57
2022/10/13 00:13:17;;;;;;;27.40;16.90;;;11.60;99.90;;;11.63;73.92;95717.94;5025096;28;20866;-56
2022/10/13 00:15:45;;;;;;;28.17;16.57;;;11.60;99.90;;;11.60;73.97;95719.03;5025013;28;20480;-54
2022/10/13 00:18:13;;;;;;;29.93;18.17;;;11.60;99.90;;;11.59;73.87;95717.34;5024907;28;20495;-55
2022/10/13 00:20:42;;;;;;;30.70;17.87;;;11.50;99.90;;;11.58;73.76;95709.59;5025128;28;20488;-55
2022/10/13 00:23:12;;;;;;;26.47;16.40;;;11.50;99.90;;;11.56;74.04;95708.88;5024193;28;20449;-54
2022/10/13 00:25:42;;;;;;;31.97;18.33;;;11.50;99.90;;;11.53;73.69;95715.22;5025095;28;20869;-56
2022/10/13 00:28:09;;;;;;;28.80;17.90;;;11.50;99.90;;;11.51;74.02;95703.97;5025372;28;20477;-56
2022/10/13 00:30:36;;;;;;;25.70;17.50;;;11.50;99.90;;;11.50;74.00;95696.19;5025079;28;20591;-55
2022/10/13 00:33:04;;;;;;;29.60;17.50;;;11.40;99.90;;;11.48;73.90;95697.16;5025038;28;20452;-57
2022/10/13 00:35:31;;;;;;;28.37;17.53;;;11.40;99.90;;;11.46;73.98;95698.22;5024864;28;20476;-56
2022/10/13 00:37:58;;;;;;;27.73;17.77;;;11.40;99.90;;;11.43;74.25;95694.06;5024262;28;20539;-55
2022/10/13 00:40:27;;;;;;;30.77;18.40;;;11.40;99.90;;;11.41;74.21;95695.97;5024740;28;20896;-56
2022/10/13 00:42:54;;;;;;;29.27;16.40;;;11.40;99.90;;;11.39;74.39;95690.00;5025078;28;20518;-56
2022/10/13 00:45:23;;;;;;;27.07;16.70;;;11.40;99.90;;;11.38;74.09;95690.13;5024699;28;20480;-56
2022/10/13 00:47:53;;;;;;;31.80;18.10;;;11.30;99.90;;;11.37;73.96;95685.81;5023605;28;20519;-54
2022/10/13 00:50:23;;;;;;;34.77;17.70;;;11.30;99.90;;;11.36;74.10;95684.97;5025371;28;20476;-56
2022/10/13 00:52:51;;;;;;;28.03;17.67;;;11.30;99.90;;;11.36;74.20;95684.16;5025310;28;20440;-56
2022/10/13 00:55:20;;;;;;;30.83;18.60;;;11.30;99.90;;;11.34;74.16;95686.91;5024334;28;20495;-55
2022/10/13 00:57:53;;;;;;;27.67;16.80;;;11.30;99.90;;;11.32;74.08;95683.53;5024900;28;20534;-55
2022/10/13 01:00:22;;;;;;;31.03;18.40;;;11.30;99.90;;;11.31;73.72;95687.16;5024114;28;20654;-57
2022/10/13 01:02:49;;;;;;;31.73;16.03;;;11.30;99.90;;;11.29;73.80;95681.16;5024929;28;20520;-54
2022/10/13 01:05:16;;;;;;;28.87;17.00;;;11.30;99.90;;;11.27;73.87;95683.91;5022233;28;21166;-54
2022/10/13 01:07:47;;;;;;;26.23;16.43;;;11.20;99.90;;;11.24;73.84;95680.72;5024905;28;20460;-56
2022/10/13 01:10:23;;;;;;;27.23;17.63;;;11.20;99.90;;;11.22;73.95;95672.94;5024779;28;20475;-55
2022/10/13 01:12:58;;;;;;;29.73;15.30;;;11.20;99.90;;;11.22;74.02;95672.09;5025088;28;20522;-56
2022/10/13 01:15:29;;;;;;;24.67;15.60;;;11.20;99.90;;;11.21;74.05;95681.78;5020648;28;20549;-56
2022/10/13 01:18:01;;;;;;;24.80;15.70;;;11.20;99.90;;;11.20;73.94;95676.63;5026270;28;20452;-52
2022/10/13 01:20:57;;;;;;;25.97;15.90;;;11.20;99.90;;;11.19;74.20;95677.63;5024908;28;20495;-54
2022/10/13 01:24:02;;;;;;;25.10;16.17;;;11.10;99.90;;;11.15;74.45;95681.44;5024475;28;20441;-54
2022/10/13 01:27:04;;;;;;;24.30;15.67;;;11.10;99.90;;;11.11;74.59;95686.97;4985764;28;20916;-56
2022/10/13 01:30:08;;;;;;;27.33;17.00;;;11.10;99.90;;;11.10;74.72;95679.19;5020881;28;20480;-54
2022/10/13 01:33:09;;;;;;;27.33;16.50;;;11.10;99.90;;;11.09;74.70;95681.00;5018775;28;20457;-56
2022/10/13 01:35:55;;;;;;;30.40;16.93;;;11.00;99.90;;;11.06;74.77;95683.88;5026513;28;20553;-54
2022/10/13 01:38:29;;;;;;;23.63;16.53;;;11.00;99.90;;;11.04;74.95;95691.03;5026564;28;21058;-55
2022/10/13 01:41:02;;;;;;;26.13;16.60;;;11.00;99.90;;;11.02;75.10;95692.13;5025418;28;20464;-56
2022/10/13 01:43:35;;;;;;;24.87;15.70;;;11.00;99.90;;;11.00;75.12;95696.66;5028021;28;20459;-55
2022/10/13 01:46:06;;;;;;;30.13;16.80;;;11.00;99.90;;;10.99;75.00;95695.84;5026744;28;20476;-55
2022/10/13 01:48:33;;;;;;;33.50;18.43;;;11.00;99.90;;;10.93;74.95;95689.25;5027699;28;20988;-56
2022/10/13 01:51:00;;;;;;;24.20;15.10;;;10.90;99.90;;;10.86;75.11;95681.97;5027066;28;21046;-54
2022/10/13 01:53:28;;;;;;;28.33;15.13;;;10.90;99.90;;;10.87;75.09;95679.22;5027501;28;20467;-56
2022/10/13 01:55:57;;;;;;;28.63;16.43;;;10.80;99.90;;;10.86;75.21;95679.31;5027455;28;20584;-57
2022/10/13 01:58:26;;;;;;;26.77;15.60;;;10.80;99.90;;;10.86;75.30;95682.81;5027270;28;20457;-56
2022/10/13 02:01:17;;;;;;;34.40;16.93;;;10.80;99.90;;;10.86;75.04;95677.56;5027418;28;20491;-55
2022/10/13 02:03:52;;;;;;;28.40;14.20;;;10.80;99.90;;;10.83;75.00;95683.06;5025269;28;20971;-56
2022/10/13 02:06:23;;;;;;;25.13;16.30;;;10.80;99.90;;;10.83;75.10;95682.19;5023630;28;20992;-56
2022/10/13 02:08:57;;;;;;;26.27;16.13;;;10.80;99.90;;;10.83;75.23;95677.78;5026980;28;20511;-56
2022/10/13 02:11:25;;;;;;;26.17;15.50;;;10.80;99.90;;;10.85;75.23;95675.03;5023797;28;20514;-55
2022/10/13 02:13:59;;;;;;;24.10;15.50;;;10.80;99.90;;;10.87;75.54;95678.38;5027304;28;21067;-56
2022/10/13 02:16:30;;;;;;;25.50;16.17;;;10.80;99.90;;;10.87;75.14;95673.94;5027365;28;20483;-56
2022/10/13 02:18:57;;;;;;;23.80;15.17;;;10.90;99.90;;;10.88;75.20;95680.06;5027481;28;20451;-55
2022/10/13 02:21:24;;;;;;;26.30;15.77;;;10.80;99.90;;;10.89;75.14;95673.81;5027142;28;21067;-56
2022/10/13 02:23:52;;;;;;;26.77;17.00;;;10.80;99.90;;;10.89;75.15;95676.44;5028439;28;20455;-56
2022/10/13 02:26:19;;;;;;;20.73;15.10;;;10.90;99.90;;;10.90;75.08;95672.88;5030006;28;20895;-55
2022/10/13 02:28:46;;;;;;;25.80;15.40;;;10.90;99.90;;;10.91;75.11;95672.75;5027844;28;20973;-57
2022/10/13 02:31:13;;;;;;;21.23;14.10;;;10.90;99.90;;;10.92;75.37;95666.53;5027063;28;20574;-56
2022/10/13 02:33:42;;;;;;;25.73;17.03;;;10.90;99.90;;;10.93;74.98;95656.84;5027758;28;20457;-55
2022/10/13 02:36:10;;;;;;;39.20;17.63;;;10.90;99.90;;;10.96;75.28;95661.03;5027475;28;20583;-56
2022/10/13 02:38:37;;;;;;;25.80;16.80;;;10.90;99.90;;;10.97;75.13;95658.28;5026820;28;20530;-53
2022/10/13 02:41:05;;;;;;;30.30;17.07;;;10.90;99.90;;;10.97;74.83;95647.75;5026529;28;20697;-54
2022/10/13 02:43:32;;;;;;;33.50;18.00;;;10.90;99.90;;;10.98;74.88;95652.03;5026746;28;20453;-54
2022/10/13 02:45:59;;;;;;;26.97;17.00;;;10.90;99.90;;;10.97;74.60;95647.75;5025622;28;20538;-56
2022/10/13 02:48:27;;;;;;;29.03;17.07;;;10.90;99.90;;;10.97;74.95;95647.75;5026634;28;20957;-55
2022/10/13 02:50:55;;;;;;;30.97;18.40;;;10.90;99.90;;;10.96;74.56;95642.59;5026520;28;20502;-56
2022/10/13 02:53:23;;;;;;;27.93;17.03;;;10.90;99.90;;;10.94;74.65;95645.38;5027149;28;20475;-55
2022/10/13 02:55:50;;;;;;;25.70;16.40;;;10.90;99.90;;;10.95;74.91;95641.75;5026266;28;20499;-56
2022/10/13 02:58:17;;;;;;;31.00;16.77;;;10.90;99.90;;;10.96;75.05;95645.25;5026348;28;20457;-56
2022/10/13 03:00:44;;;;;;;26.20;16.63;;;10.90;99.90;;;10.94;75.24;95638.28;5025966;28;20845;-56
2022/10/13 03:03:12;;;;;;;27.73;16.30;;;10.90;99.90;;;10.94;75.15;95643.56;5026632;28;20456;-54
2022/10/13 03:05:39;;;;;;;27.30;17.17;;;10.90;99.90;;;10.94;75.33;95648.00;5029653;28;20471;-54
2022/10/13 03:08:08;;;;;;;22.23;15.00;;;10.90;99.90;;;10.96;75.18;95651.34;5026051;28;20464;-57
2022/10/13 03:10:35;;;;;;;33.70;17.10;;;10.90;99.90;;;10.98;75.25;95652.03;5026341;28;20500;-55
2022/10/13 03:13:02;;;;;;;42.40;16.10;;;10.90;99.90;;;10.98;75.38;95654.66;5026082;28;20858;-57
2022/10/13 03:15:29;;;;;;;27.23;16.00;;;10.90;99.90;;;10.98;75.11;95657.28;5025921;28;20492;-57
2022/10/13 03:17:57;;;;;;;27.93;17.07;;;11.00;99.90;;;11.00;74.88;95662.44;5026034;28;20468;-56
2022/10/13 03:20:24;;;;;;;27.40;14.93;;;11.00;99.90;;;11.00;74.90;95658.03;5026414;28;20862;-56
2022/10/13 03:22:51;;;;;;;20.50;14.80;;;10.90;99.90;;;11.01;74.58;95653.59;5026125;28;20838;-55
2022/10/13 03:25:20;;;;;;;25.27;14.67;;;11.00;99.90;;;11.00;74.26;95654.53;5026054;28;20473;-54
2022/10/13 03:27:47;;;;;;;22.63;15.33;;;11.00;99.90;;;11.00;74.20;95663.28;5025695;28;20456;-56
2022/10/13 03:30:14;;;;;;;26.20;15.13;;;10.90;99.90;;;10.99;74.15;95664.25;5026644;28;20496;-57
2022/10/13 03:32:41;;;;;;;26.80;14.23;;;11.00;99.90;;;11.00;73.80;95660.66;5025920;28;20969;-55
2022/10/13 03:35:09;;;;;;;27.10;14.00;;;10.90;99.90;;;11.00;73.76;95662.44;5022722;28;20496;-53
2022/10/13 03:37:36;;;;;;;23.47;14.10;;;11.00;99.90;;;11.00;73.42;95665.94;5025537;28;20448;-56
2022/10/13 03:40:05;;;;;;;24.50;13.90;;;11.00;99.90;;;11.00;73.56;95657.16;5026082;28;20997;-56
2022/10/13 03:42:35;;;;;;;27.73;14.60;;;11.00;99.90;;;10.99;73.66;95661.59;5025509;28;20528;-56
2022/10/13 03:45:02;;;;;;;30.53;15.60;;;11.00;99.90;;;10.99;73.60;95661.59;5025770;28;21379;-55
2022/10/13 03:47:30;;;;;;;30.97;16.77;;;10.90;99.90;;;11.01;73.58;95653.59;5025421;28;20460;-56
2022/10/13 03:49:57;;;;;;;35.10;18.00;;;11.00;99.90;;;11.02;73.67;95653.47;5022618;28;20504;-57
2022/10/13 03:52:30;;;;;;;33.70;19.50;;;11.00;99.90;;;11.03;73.78;95656.94;5025611;28;20448;-55
2022/10/13 03:54:57;;;;;;;34.80;18.97;;;11.00;99.90;;;11.03;74.26;95651.66;5028429;28;20500;-55
2022/10/13 03:57:24;;;;;;;36.50;19.60;;;11.00;99.90;;;11.05;74.51;95652.41;5025307;28;20965;-56
2022/10/13 03:59:55;;;;;;;40.97;18.77;;;11.00;99.90;;;11.06;74.16;95647.00;5025054;28;20548;-55
2022/10/13 04:02:22;;;;;;;41.47;20.80;;;11.00;99.90;;;11.08;74.08;95650.34;5024362;28;20444;-58
2022/10/13 04:04:49;;;;;;;50.60;21.13;;;11.00;99.90;;;11.09;73.99;95649.41;5024650;28;21031;-55
2022/10/13 04:07:16;;;;;;;57.13;20.57;;;11.00;99.90;;;11.09;74.20;95641.50;5025064;28;20538;-56
2022/10/13 04:09:44;;;;;;;41.33;21.43;;;11.10;99.90;;;11.09;74.27;95645.91;5025170;28;20922;-56
2022/10/13 04:12:11;;;;;;;37.30;19.93;;;11.10;99.90;;;11.09;74.41;95643.28;5025377;28;20966;-54
2022/10/13 04:14:38;;;;;;;37.63;20.37;;;11.00;99.90;;;11.08;74.48;95649.53;5025973;28;20569;-54
2022/10/13 04:17:07;;;;;;;42.00;20.60;;;11.00;99.90;;;11.05;74.37;95644.50;5025588;28;20463;-56
2022/10/13 04:19:34;;;;;;;41.93;19.93;;;11.00;99.90;;;11.05;74.37;95645.31;5023879;28;20484;-55
2022/10/13 04:22:02;;;;;;;39.47;20.80;;;11.00;99.90;;;11.05;74.37;95644.50;5024897;28;20456;-53
2022/10/13 04:24:29;;;;;;;47.40;21.73;;;11.00;99.90;;;11.04;74.65;95648.91;5024699;28;20985;-55
2022/10/13 04:26:56;;;;;;;55.10;21.37;;;11.00;99.90;;;11.03;74.25;95642.00;5021035;28;20455;-55
2022/10/13 04:29:24;;;;;;;38.30;19.77;;;11.00;99.90;;;11.02;74.61;95645.56;5024760;28;20453;-56
2022/10/13 04:31:51;;;;;;;54.17;21.57;;;11.00;99.90;;;11.01;74.21;95640.44;5025189;28;20465;-56
2022/10/13 04:34:20;;;;;;;50.30;22.67;;;11.00;99.90;;;11.01;74.49;95641.25;5024828;28;20922;-56
2022/10/13 04:36:50;;;;;;;45.40;24.03;;;11.00;99.90;;;11.00;74.26;95636.97;5025139;28;20480;-55
2022/10/13 04:39:18;;;;;;;39.80;20.43;;;11.00;99.90;;;10.98;74.45;95636.25;5024677;28;20552;-57
2022/10/13 04:41:45;;;;;;;42.23;21.20;;;11.00;99.90;;;10.98;74.49;95638.88;5021060;28;20543;-57
2022/10/13 04:44:13;;;;;;;39.73;20.97;;;10.90;99.90;;;10.98;74.47;95638.03;5024134;28;20547;-57
2022/10/13 04:46:40;;;;;;;41.67;20.80;;;10.90;99.90;;;10.97;74.58;95645.13;5025186;28;20472;-56
2022/10/13 04:49:07;;;;;;;45.10;20.60;;;11.00;99.90;;;10.97;74.57;95646.88;5023695;28;20464;-55
2022/10/13 04:51:36;;;;;;;48.63;21.00;;;11.00;99.90;;;10.99;74.72;95645.81;5023921;28;20457;-57
2022/10/13 04:54:04;;;;;;;36.37;20.17;;;10.90;99.90;;;11.03;74.61;95642.00;5024064;28;20898;-55
2022/10/13 04:56:31;;;;;;;46.33;21.80;;;11.00;99.90;;;11.07;74.73;95645.19;5024534;28;20519;-57
2022/10/13 04:58:59;;;;;;;34.73;20.20;;;11.00;99.90;;;11.12;74.66;95651.78;5023917;28;20453;-55
2022/10/13 05:01:26;;;;;;;39.60;18.93;;;11.10;99.90;;;11.17;74.34;95658.44;5023994;28;20480;-55
2022/10/13 05:03:54;;;;;;;36.80;19.13;;;11.10;99.90;;;11.20;74.35;95653.78;5022901;28;20533;-55
2022/10/13 05:06:24;;;;;;;44.73;22.17;;;11.10;99.90;;;11.26;73.99;95657.72;5024405;28;20549;-56
2022/10/13 05:08:52;;;;;;;47.90;17.97;;;11.20;99.90;;;11.29;73.92;95662.72;5025791;28;20453;-54
2022/10/13 05:11:20;;;;;;;30.90;18.57;;;11.20;99.90;;;11.34;73.75;95663.22;5027911;28;20475;-56
2022/10/13 05:13:47;;;;;;;30.00;17.03;;;11.30;99.90;;;11.37;73.84;95662.97;5028701;28;20994;-56
2022/10/13 05:16:16;;;;;;;33.30;15.97;;;11.30;99.90;;;11.41;73.74;95661.72;5028234;28;20504;-57
2022/10/13 05:18:43;;;;;;;30.47;15.90;;;11.40;99.90;;;11.44;73.47;95666.75;5026669;28;20452;-56
2022/10/13 05:21:12;;;;;;;22.80;14.80;;;11.40;99.90;;;11.46;73.80;95664.84;5027082;28;20827;-57
2022/10/13 05:23:40;;;;;;;28.27;16.50;;;11.40;99.90;;;11.52;73.52;95670.56;5027350;28;20514;-57
2022/10/13 05:26:11;;;;;;;21.03;14.80;;;11.50;99.90;;;11.54;73.55;95679.16;5027067;28;20468;-56
2022/10/13 05:28:38;;;;;;;21.37;14.50;;;11.50;99.90;;;11.56;73.11;95672.00;5027130;28;20552;-56
2022/10/13 05:31:10;;;;;;;22.43;14.17;;;11.50;99.90;;;11.55;72.74;95678.22;5028804;28;20489;-55
2022/10/13 05:33:38;;;;;;;29.40;15.37;;;11.50;99.90;;;11.54;73.37;95673.91;5023184;28;20484;-57
2022/10/13 05:36:07;;;;;;;24.13;14.60;;;11.50;99.90;;;11.52;73.52;95683.72;5026877;28;20507;-56
2022/10/13 05:38:34;;;;;;;20.03;13.80;;;11.50;99.90;;;11.52;73.41;95689.81;5027004;28;20870;-55
2022/10/13 05:41:05;;;;;;;19.60;14.43;;;11.50;99.90;;;11.52;73.26;95694.28;5027682;28;20456;-55
2022/10/13 05:43:34;;;;;;;26.13;14.63;;;11.50;99.90;;;11.51;73.42;95696.06;5027088;28;20445;-56
2022/10/13 05:46:02;;;;;;;22.03;15.23;;;11.50;99.90;;;11.51;73.19;95693.44;5027502;28;20868;-56
2022/10/13 05:48:29;;;;;;;31.50;16.20;;;11.50;99.90;;;11.53;73.55;95695.94;5027943;28;20457;-56
2022/10/13 05:50:57;;;;;;;27.40;14.83;;;11.50;99.90;;;11.54;73.30;95702.88;5026758;28;20473;-56
2022/10/13 05:53:25;;;;;;;26.77;16.90;;;11.50;99.90;;;11.57;73.87;95702.63;5028472;28;20460;-58
2022/10/13 05:55:52;;;;;;;29.47;16.60;;;11.50;99.90;;;11.63;73.57;95707.41;5027019;28;20500;-57
2022/10/13 05:58:20;;;;;;;25.47;15.13;;;11.60;99.90;;;11.70;74.71;95713.84;5027356;28;20961;-55
2022/10/13 06:00:48;;;;;;;31.63;16.30;;;11.60;99.90;;;11.80;75.01;95714.78;5026681;28;20588;-59
2022/10/13 06:03:17;;;;;;;23.80;16.23;;;11.70;99.90;;;11.90;75.45;95706.94;5026734;28;20448;-54
2022/10/13 06:05:46;;;;;;;26.00;17.20;;;11.80;99.90;;;12.00;75.26;95699.94;5027130;28;20472;-57
2022/10/13 06:08:13;;;;;;;89.20;16.97;;;11.90;99.90;;;12.07;74.23;95696.78;5027192;28;20459;-55
2022/10/13 06:10:41;;;;;;;27.90;16.30;;;11.90;99.90;;;12.10;73.68;95707.09;5027467;28;20479;-57
2022/10/13 06:13:08;;;;;;;33.13;18.57;;;12.00;99.90;;;12.13;73.32;95706.81;5027261;28;20452;-57
2022/10/13 06:15:35;;;;;;;27.97;17.30;;;12.00;99.90;;;12.14;73.31;95706.69;5027801;28;20496;-57
2022/10/13 06:18:08;;;;;;;39.20;16.90;;;12.10;99.90;;;12.17;73.69;95717.00;5026953;28;20459;-58
2022/10/13 06:20:35;;;;;;;34.13;18.33;;;12.10;99.90;;;12.20;73.23;95708.81;5026958;28;20538;-57
2022/10/13 06:23:02;;;;;;;35.67;18.60;;;12.10;99.90;;;12.22;73.05;95699.94;5026906;28;20491;-57
2022/10/13 06:25:30;;;;;;;37.50;19.23;;;12.10;99.90;;;12.24;73.04;95700.66;5026853;28;20468;-54
2022/10/13 06:27:58;;;;;;;27.63;16.87;;;12.20;99.90;;;12.34;72.93;95712.09;5024374;28;20464;-56
2022/10/13 06:30:26;;;;;;;34.00;17.80;;;12.20;99.90;;;12.40;72.67;95703.66;5027100;28;21051;-56
2022/10/13 06:32:54;;;;;;;34.33;17.43;;;12.30;99.90;;;12.46;72.45;95705.78;5026164;28;20507;-59
2022/10/13 06:35:23;;;;;;;30.43;18.17;;;12.40;99.90;;;12.50;72.26;95706.34;5026859;28;21032;-55
2022/10/13 06:37:52;;;;;;;29.63;17.30;;;12.40;99.90;;;12.51;72.40;95706.22;5026668;28;20449;-56
2022/10/13 06:40:19;;;;;;;33.70;18.50;;;12.40;99.90;;;12.53;72.44;95708.72;5026200;28;20489;-56
2022/10/13 06:42:50;;;;;;;32.00;18.90;;;12.50;99.90;;;12.53;72.24;95701.69;5026668;28;20468;-55
2022/10/13 06:45:18;;;;;;;36.23;18.43;;;12.50;99.90;;;12.53;72.08;95699.03;5026564;28;20469;-57
2022/10/13 06:47:45;;;;;;;49.37;18.80;;;12.50;99.90;;;12.55;72.17;95698.91;5026440;28;20492;-53
2022/10/13 06:50:13;;;;;;;31.40;18.80;;;12.50;99.90;;;12.58;72.24;95698.63;5026549;28;20476;-58
2022/10/13 06:52:42;;;;;;;29.47;18.70;;;12.50;99.90;;;12.66;72.32;95697.97;5024061;28;20452;-55
2022/10/13 06:55:09;;;;;;;33.80;18.77;;;12.60;99.90;;;12.76;72.37;95703.28;5026210;28;20483;-55
2022/10/13 06:57:37;;;;;;;30.57;18.37;;;12.70;99.90;;;12.90;72.08;95692.34;5027102;28;20445;-54
2022/10/13 07:00:06;;;;;;;35.00;18.40;;;12.80;99.90;;;13.12;71.87;95698.41;5026118;28;20989;-57
2022/10/13 07:02:33;;;;;;;28.27;19.57;;;13.00;99.90;;;13.39;71.27;95690.72;5025967;28;20465;-58
2022/10/13 07:05:01;;;;;;;27.80;18.70;;;13.20;99.90;;;13.64;70.58;95683.22;5026017;28;21044;-57
2022/10/13 07:07:28;;;;;;;31.20;18.47;;;13.50;99.90;;;14.01;70.34;95695.75;5022580;28;20484;-56
2022/10/13 07:09:57;;;;;;;33.13;18.70;;;13.80;99.90;;;14.47;70.08;95693.31;5026692;28;20468;-57
2022/10/13 07:12:24;;;;;;;32.07;20.80;;;14.30;99.90;;;15.02;69.13;95684.63;5026466;28;20986;-54
2022/10/13 07:14:52;;;;;;;36.33;22.07;;;14.80;99.90;;;15.56;68.15;95684.72;5026639;28;20483;-56
2022/10/13 07:17:19;;;;;;;34.77;21.10;;;15.30;99.90;;;16.14;67.10;95686.06;5026185;28;20489;-54
2022/10/13 07:19:48;;;;;;;34.23;18.93;;;15.90;99.90;;;16.61;65.76;95683.09;5025822;28;20472;-57
2022/10/13 07:22:15;;;;;;;29.20;18.50;;;16.40;99.90;;;16.95;64.77;95687.63;5025689;28;20453;-57
2022/10/13 07:24:42;;;;;;;28.30;17.47;;;16.80;99.90;;;17.23;63.64;95694.53;5026027;28;20522;-57
2022/10/13 07:27:11;;;;;;;27.63;17.90;;;17.10;99.90;;;17.39;63.11;95698.06;5026209;28;20496;-56
2022/10/13 07:29:39;;;;;;;30.70;19.10;;;17.30;99.90;;;17.61;62.24;95700.28;5025995;28;20472;-55
2022/10/13 07:32:07;;;;;;;38.53;18.13;;;17.50;99.90;;;17.82;62.24;95699.84;5024053;28;21008;-55
2022/10/13 07:34:34;;;;;;;30.17;18.17;;;17.70;99.60;;;18.08;60.80;95692.56;5025724;28;21060;-56
2022/10/13 07:37:01;;;;;;;33.37;18.93;;;18.00;99.10;;;18.33;60.41;95691.75;5025530;28;20514;-57
2022/10/13 07:39:29;;;;;;;26.23;17.67;;;18.20;98.40;;;18.57;59.64;95690.88;5026389;28;20587;-57
2022/10/13 07:41:56;;;;;;;24.57;17.47;;;18.50;97.70;;;18.88;59.46;95690.97;5027131;28;20458;-57
2022/10/13 07:44:25;;;;;;;27.03;16.63;;;18.80;97.60;;;19.24;58.36;95690.53;5025627;28;20547;-56
2022/10/13 07:46:53;;;;;;;29.97;19.80;;;19.20;97.30;;;19.64;57.98;95686.00;5025792;28;20539;-57
2022/10/13 07:49:21;;;;;;;27.37;19.20;;;19.50;96.90;;;20.10;56.96;95689.72;5025092;28;20457;-56
2022/10/13 07:51:49;;;;;;;28.57;19.00;;;19.90;96.10;;;20.42;55.93;95686.78;5023724;28;20484;-57
2022/10/13 07:54:17;;;;;;;25.97;17.70;;;20.20;95.20;;;20.59;55.28;95684.78;5025292;28;20991;-55
2022/10/13 07:56:45;;;;;;;31.60;20.40;;;20.40;94.50;;;20.56;54.52;95689.66;5025544;28;20496;-55
2022/10/13 07:59:12;;;;;;;28.47;18.90;;;20.40;93.60;;;20.50;54.15;95677.03;5024964;28;20980;-55
2022/10/13 08:01:41;;;;;;;23.20;16.70;;;20.40;93.00;;;20.58;54.46;95679.63;5025796;28;20448;-55
2022/10/13 08:04:09;;;;;;;27.23;18.03;;;20.40;93.10;;;20.75;54.38;95678.47;5022609;28;20935;-55
2022/10/13 08:06:37;;;;;;;28.60;18.40;;;20.60;93.00;;;20.99;53.17;95684.56;5021452;28;20929;-58
2022/10/13 08:09:07;;;;;;;47.27;21.27;;;20.70;92.30;;;21.18;52.84;95682.31;5023894;28;20519;-57
2022/10/13 08:11:35;;;;;;;23.67;16.63;;;20.90;92.10;;;21.36;52.70;95680.09;5023358;28;20461;-55
2022/10/13 08:14:02;;;;;;;25.67;17.60;;;21.10;91.60;;;21.58;51.82;95680.16;5025058;28;20452;-55
2022/10/13 08:16:30;;;;;;;18.10;16.07;;;21.30;90.80;;;21.73;50.50;95669.44;5022503;28;20507;-56
2022/10/13 08:18:59;;;;;;;19.60;14.93;;;21.40;88.50;;;21.89;51.17;95674.56;5023572;28;20472;-57
2022/10/13 08:21:27;;;;;;;22.50;15.70;;;21.60;89.30;;;22.13;50.85;95665.28;5023562;28;21014;-58
2022/10/13 08:23:54;;;;;;;25.03;15.53;;;21.80;89.10;;;22.38;49.59;95670.25;5023356;28;20457;-57
2022/10/13 08:26:24;;;;;;;26.47;16.73;;;22.00;87.40;;;22.49;48.82;95660.88;5024061;28;20476;-56
2022/10/13 08:28:51;;;;;;;32.10;18.13;;;22.20;84.90;;;22.54;48.54;95661.09;5023434;28;20457;-56
2022/10/13 08:31:18;;;;;;;22.57;17.33;;;22.20;83.40;;;22.54;48.40;95659.28;5019916;28;20896;-58
2022/10/13 08:33:47;;;;;;;26.17;17.07;;;22.30;82.20;;;22.53;47.70;95662.97;5022182;28;20456;-57
2022/10/13 08:36:16;;;;;;;28.43;18.07;;;22.20;80.60;;;22.55;47.69;95652.88;5022676;28;20506;-56
2022/10/13 08:38:43;;;;;;;31.47;19.40;;;22.30;81.10;;;22.62;47.12;95652.09;5022407;28;20461;-54
2022/10/13 08:41:16;;;;;;;47.27;25.10;;;22.30;79.50;;;22.69;47.36;95652.97;5023322;28;20477;-56
2022/10/13 08:43:45;;;;;;;28.50;20.27;;;22.40;79.20;;;22.82;47.07;95641.47;5018921;28;20544;-57
2022/10/13 08:46:13;;;;;;;22.60;15.80;;;22.40;79.10;;;23.01;47.10;95645.31;5027480;28;20591;-55
2022/10/13 08:48:40;;;;;;;22.23;15.77;;;22.60;79.00;;;23.19;46.80;95642.13;5026430;28;20463;-54
2022/10/13 08:51:08;;;;;;;21.43;15.83;;;22.80;78.20;;;23.39;46.41;95636.84;5028347;28;21032;-56
2022/10/13 08:53:39;;;;;;;23.07;16.17;;;23.00;77.30;;;23.68;46.37;95629.50;5028190;28;20492;-54
2022/10/13 08:56:09;;;;;;;24.70;17.10;;;23.30;76.20;;;23.87;45.39;95630.59;5025614;28;20493;-58
2022/10/13 08:58:39;;;;;;;28.83;17.23;;;23.50;74.50;;;23.94;44.67;95634.94;5025899;28;21000;-55
2022/10/13 09:01:13;;;;;;;28.73;18.33;;;23.60;73.10;;;23.92;44.36;95628.94;5023920;28;20480;-55
2022/10/13 09:03:49;;;;;;;31.60;17.50;;;23.60;71.90;;;23.93;43.99;95625.22;5021595;28;20558;-55
2022/10/13 09:06:26;;;;;;;28.23;18.53;;;23.60;71.00;;;24.12;44.97;95620.06;5027575;28;20487;-56
2022/10/13 09:08:56;;;;;;;29.10;17.90;;;23.70;71.70;;;24.38;44.66;95615.72;5024571;28;20483;-56
2022/10/13 09:11:26;;;;;;;21.97;17.80;;;23.90;72.10;;;24.67;43.38;95623.38;5024131;28;20564;-56
2022/10/13 09:13:58;;;;;;;30.93;17.13;;;24.20;70.00;;;25.03;42.84;95621.22;5025131;28;20464;-55
2022/10/13 09:16:30;;;;;;;20.50;16.10;;;24.50;69.10;;;25.35;42.99;95621.34;5027558;28;20860;-55
2022/10/13 09:19:20;;;;;;;25.97;16.60;;;24.80;67.80;;;25.67;42.19;95610.59;5025820;28;20456;-53
2022/10/13 09:21:47;;;;;;;23.20;16.63;;;25.20;67.60;;;25.94;41.95;95605.88;5023526;28;20551;-59
2022/10/13 09:24:18;;;;;;;37.23;15.77;;;25.50;65.60;;;26.04;39.91;95598.19;5028009;28;20452;-56
2022/10/13 09:26:46;;;;;;;21.97;15.20;;;25.60;61.70;;;25.94;40.98;95590.53;5026087;28;20990;-56
2022/10/13 09:29:19;;;;;;;22.87;16.63;;;25.60;62.50;;;25.74;40.69;95592.53;5027381;28;20459;-55
2022/10/13 09:31:47;;;;;;;28.30;17.83;;;25.50;62.10;;;25.53;40.82;95588.28;5024800;28;20452;-55
2022/10/13 09:34:22;;;;;;;28.53;16.70;;;25.20;61.70;;;25.22;41.40;95587.19;5024563;28;20868;-55
2022/10/13 09:36:57;;;;;;;29.00;15.60;;;25.00;62.60;;;25.26;41.35;95584.91;5027194;28;20567;-56
2022/10/13 09:39:26;;;;;;;29.23;18.40;;;24.90;63.40;;;25.29;41.28;95593.41;5026392;28;20466;-57
2022/10/13 09:42:08;;;;;;;33.13;17.87;;;24.80;62.60;;;25.12;41.11;95589.50;5026923;28;20523;-57
2022/10/13 09:44:35;;;;;;;23.53;17.53;;;24.70;62.20;;;24.91;41.65;95586.09;5027489;28;21093;-56
2022/10/13 09:47:03;;;;;;;28.50;18.40;;;24.60;62.20;;;24.82;42.05;95587.34;5025435;28;20456;-55
2022/10/13 09:49:37;;;;;;;23.70;16.93;;;24.50;62.90;;;24.83;41.50;95583.59;5026577;28;20571;-56
2022/10/13 09:52:06;;;;;;;29.07;17.40;;;24.40;62.90;;;24.92;42.38;95579.63;5024819;28;20543;-55
2022/10/13 09:54:47;;;;;;;24.53;17.50;;;24.50;62.90;;;25.02;41.23;95577.34;5026704;28;20559;-55
2022/10/13 09:57:28;;;;;;;23.00;16.57;;;24.60;61.80;;;25.22;41.51;95577.25;5023951;28;20483;-57
2022/10/13 10:00:05;;;;;;;30.77;17.70;;;24.70;62.70;;;25.45;41.24;95569.72;5024666;28;20566;-54
2022/10/13 10:02:34;;;;;;;39.53;18.60;;;24.90;62.20;;;25.69;40.53;95560.84;5024962;28;20972;-56
2022/10/13 10:05:06;;;;;;;31.03;16.50;;;25.20;60.90;;;25.83;40.47;95560.78;5024564;28;20576;-55
2022/10/13 10:07:33;;;;;;;24.23;16.37;;;25.40;60.50;;;25.97;40.16;95562.31;5026247;28;20456;-56
2022/10/13 10:10:05;;;;;;;26.87;15.90;;;25.50;60.00;;;26.05;40.17;95553.16;5024749;28;20480;-56
2022/10/13 10:12:36;;;;;;;28.17;16.60;;;25.60;59.70;;;26.15;39.96;95541.88;5024210;28;20532;-54
2022/10/13 10:15:03;;;;;;;34.37;17.33;;;25.70;59.10;;;26.28;39.62;95547.97;5024182;28;20480;-56